メインページ
METAR-TAF:

METAR-TAF

空港 :

トロント・ピアソン国際空港

トロント, オンタリオ州, カナダ

緯度: 43-40N, 経度: 079-38W, 海抜: 173m

現時点の気象観測

当レポートは28分前の19:00(UTC)に作成
西の風 9kt、最大16ktの突風を伴う、西/南西から北西の間で変化する
気温 27°C
湿度 51%
気圧 1010 hPa
視程: 24.1km
高度2500ftの雲はほとんどない
高度25000ftの雲はほとんどない

METAR: CYYZ 181900Z 26009G16KT 250V320 15SM FEW025 FEW250 27/16 A2983 RMK CU1CI1 CU TR SLP100 DENSITY ALT 2200FT

時間: 15:28 (19:28 UTC)

予報

当レポートは1時間50分前の17:38(UTC)に作成
予報は18日の 18時(UTC)から 19日の 24時(UTC)まで有効
北西の風 12kt
視程: 10km
高度2500ftの雲は散在している
18日の 18時(UTC)から 18日の 21時(UTC)まで一時的に
高度2000ftの千切れ雲あり
19日の 0800時(UTC)から
の風 10kt
視程: 10km
高度5000ftの千切れ雲あり
19日の 1500時(UTC)から
の風 10kt
視程: 10km
高度2500ftの雲はほとんどない

TAF: CYYZ 181738Z 1818/1924 31012KT P6SM SCT025 TEMPO 1818/1821 BKN020 FM190800 35010KT P6SM BKN050 FM191500 36010KT P6SM FEW025 RMK NXT FCST BY 182100Z

4,000以上の空港の気象観測と天気予報(METAR報とTAF報)

利用可能な観測所は地図上に黄色い丸と赤い丸で示す。

丸の上にカーソルを重ねると観測所名を参照できる。

次にクリックすると気象観測と天気予報を参照できる。

マップの切り替え:黒色「×」印の緑ボタンをクリックして拡大、「-」印の緑ボタンをクリックして縮小、緑色の三角印をクリックして隣りの地図に切り替え


METAR-TAF: